logo
Rechercher aéroport 
image banner adimage banner adimage banner ad
image banner ad

SCKP - Coposa

Situé à Pica, Chile

ICAO - SCKP, IATA - CPP

Données fournies par Airmate  

Information générale

Coordonnées: S20°45'6" W68°40'57"
Élévation : 12468 feet MSL.
Variation magnétique : -7° East
Voir autres Aéroports à Tarapacá

Données opérationnelles

Special qualification required
Heure actuelle UTC:
Heure actuelle locale:
Météo à : - ( 0 km )
METAR: KSEM 232140Z AUTO 25010KT 10SM VCTS FEW065 SCT080 BKN095 26/24 A3009 RMK AO2 LTG DSNT N AND NW
Voir NOTAMs / SUP AIP / TFR affectant cet aéroport [VIEW]
Fréquences de communication: [VIEW]

Pistes:

Identifiant RWYQFULongueur (ft)Largeur (ft)SurfaceLDA (ft)
17170°1053499ASPH
35350°1053499ASPH

Coordonnées de l'aéroport

Adresse: Pica Chile

Vue satellite de SCKP